Time;durP1;ratioP1;P1;durP2;ratioP2;P2;SDS_P1;SDS_P2;PMS_P1;PMS_P2;Temp;Humidity;BMP_temperature;BMP_pressure;BME280_temperature;BME280_humidity;BME280_pressure;Samples;Min_cycle;Max_cycle;Signal;HPM_P1;HPM_P2
2021/08/27 00:02:01;;;;;;;3.55;3.25;;;15.50;81.10;;;;;;5019954;28;20218;-77
2021/08/27 00:04:28;;;;;;;7.03;3.47;;;15.50;80.40;;;;;;5037705;28;20232;-77
2021/08/27 00:06:55;;;;;;;6.35;3.25;;;15.50;80.30;;;;;;5040367;28;20241;-78
2021/08/27 00:09:22;;;;;;;8.52;3.40;;;15.50;80.50;;;;;;5035858;28;20235;-77
2021/08/27 00:11:49;;;;;;;4.23;3.70;;;15.40;80.20;;;;;;5037825;28;20238;-77
2021/08/27 00:14:16;;;;;;;10.40;4.38;;;15.40;81.20;;;;;;5036695;28;20521;-76
2021/08/27 00:16:43;;;;;;;6.30;3.80;;;15.40;81.80;;;;;;5037179;28;20289;-76
2021/08/27 00:19:12;;;;;;;3.72;3.40;;;15.40;81.20;;;;;;5038792;28;20210;-76
2021/08/27 00:21:38;;;;;;;5.05;3.78;;;15.40;81.20;;;;;;5036551;28;20222;-76
2021/08/27 00:24:06;;;;;;;7.57;3.50;;;15.40;81.80;;;;;;5021685;28;20758;-76
2021/08/27 00:26:33;;;;;;;4.00;3.25;;;15.40;81.20;;;;;;5015693;28;20212;-76
2021/08/27 00:29:00;;;;;;;4.75;3.30;;;15.40;81.20;;;;;;5029756;28;20241;-76
2021/08/27 00:31:27;;;;;;;3.40;2.90;;;15.40;81.20;;;;;;5035237;28;20238;-76
2021/08/27 00:33:55;;;;;;;5.47;3.78;;;15.40;81.20;;;;;;5033601;28;20238;-76
2021/08/27 00:36:23;;;;;;;5.50;3.45;;;15.30;81.10;;;;;;5035417;28;20259;-75
2021/08/27 00:38:51;;;;;;;7.47;4.38;;;15.30;81.10;;;;;;5025441;28;20239;-76
2021/08/27 00:41:18;;;;;;;5.68;3.88;;;15.30;81.10;;;;;;5023589;28;20207;-77
2021/08/27 00:43:45;;;;;;;7.70;4.07;;;15.30;81.40;;;;;;5038700;28;20207;-77
2021/08/27 00:46:12;;;;;;;6.57;3.87;;;15.30;81.30;;;;;;5053863;28;20226;-77
2021/08/27 00:48:40;;;;;;;5.95;3.80;;;15.30;81.10;;;;;;5035836;28;20518;-77
2021/08/27 00:51:07;;;;;;;9.40;4.70;;;15.30;81.10;;;;;;5036294;28;20267;-77
2021/08/27 00:53:36;;;;;;;6.13;3.85;;;15.30;81.10;;;;;;5044167;28;20210;-78
2021/08/27 00:56:05;;;;;;;3.88;3.45;;;15.20;81.00;;;;;;5045049;28;20318;-77
2021/08/27 00:58:32;;;;;;;6.20;3.63;;;15.20;81.00;;;;;;5033998;28;20200;-77
2021/08/27 01:00:59;;;;;;;8.80;4.10;;;15.20;81.00;;;;;;5037396;28;20874;-78
2021/08/27 01:03:26;;;;;;;7.10;3.83;;;15.20;81.40;;;;;;5032088;28;20538;-78
2021/08/27 01:06:02;;;;;;;7.30;3.57;;;15.20;81.30;;;;;;5017314;28;20544;-77
2021/08/27 01:08:34;;;;;;;4.95;3.50;;;15.20;81.80;;;;;;5017775;28;20549;-77
2021/08/27 01:11:09;;;;;;;5.10;3.50;;;15.10;82.20;;;;;;5035902;28;20207;-77
2021/08/27 01:13:41;;;;;;;4.55;3.58;;;15.10;82.90;;;;;;5034790;28;20663;-75
2021/08/27 01:16:14;;;;;;;6.82;3.95;;;15.10;83.40;;;;;;5036614;28;20714;-77
2021/08/27 01:18:49;;;;;;;4.72;3.92;;;15.10;84.40;;;;;;5034991;28;20202;-77
2021/08/27 01:21:52;;;;;;;4.32;3.45;;;15.10;84.30;;;;;;5035842;28;20635;-78
2021/08/27 01:24:20;;;;;;;5.20;3.75;;;15.10;84.50;;;;;;5021425;28;20237;-78
2021/08/27 01:26:50;;;;;;;4.00;3.58;;;15.10;84.50;;;;;;5017254;28;20314;-78
2021/08/27 01:29:23;;;;;;;4.82;3.92;;;15.10;84.00;;;;;;5036953;28;20638;-78
2021/08/27 01:31:57;;;;;;;4.10;3.70;;;15.10;84.40;;;;;;5055006;28;20238;-78
2021/08/27 01:34:40;;;;;;;4.60;3.35;;;15.20;84.80;;;;;;5053899;28;20456;-78
2021/08/27 01:37:11;;;;;;;5.75;3.55;;;15.20;84.40;;;;;;5051492;28;20257;-78
2021/08/27 01:39:41;;;;;;;5.93;3.92;;;15.20;84.10;;;;;;5051899;28;20203;-79
2021/08/27 01:42:11;;;;;;;5.07;3.90;;;15.20;83.60;;;;;;5050690;28;20226;-78
2021/08/27 01:44:39;;;;;;;4.97;3.67;;;15.30;82.60;;;;;;5036428;28;20225;-78
2021/08/27 01:47:07;;;;;;;4.20;3.30;;;15.30;82.40;;;;;;5038155;28;20455;-78
2021/08/27 01:49:34;;;;;;;3.75;3.00;;;15.30;81.90;;;;;;5025587;28;20522;-79
2021/08/27 01:52:08;;;;;;;4.22;2.92;;;15.30;80.40;;;;;;5030462;28;20227;-78
2021/08/27 01:54:36;;;;;;;4.37;3.83;;;15.30;78.70;;;;;;5035743;28;20262;-79
2021/08/27 01:57:03;;;;;;;5.35;3.25;;;15.40;78.90;;;;;;5036706;28;20501;-79
2021/08/27 01:59:34;;;;;;;7.20;3.37;;;15.40;78.20;;;;;;5036309;28;20200;-78
2021/08/27 02:02:01;;;;;;;5.00;2.92;;;15.40;78.00;;;;;;5022060;28;20873;-78
2021/08/27 02:04:29;;;;;;;4.25;2.67;;;15.40;75.80;;;;;;5023621;28;20783;-79
2021/08/27 02:06:56;;;;;;;4.88;3.00;;;15.20;77.10;;;;;;5034533;28;20206;-79
2021/08/27 02:09:25;;;;;;;3.00;2.70;;;15.00;80.80;;;;;;5029582;28;20279;-80
2021/08/27 02:11:52;;;;;;;3.88;3.05;;;14.80;85.60;;;;;;5023123;28;20211;-79
2021/08/27 02:14:20;;;;;;;3.45;3.10;;;14.50;88.80;;;;;;5027128;28;20296;-79
2021/08/27 02:16:47;;;;;;;6.03;3.67;;;14.40;91.50;;;;;;5036993;28;20210;-79
2021/08/27 02:19:14;;;;;;;7.18;3.40;;;14.20;93.00;;;;;;5021313;28;20294;-79
2021/08/27 02:21:44;;;;;;;5.53;3.92;;;14.20;94.80;;;;;;5015392;28;20689;-78
2021/08/27 02:24:15;;;;;;;6.78;3.72;;;14.20;96.20;;;;;;5026665;28;20234;-79
2021/08/27 02:26:45;;;;;;;6.78;4.55;;;14.10;96.60;;;;;;5035212;28;20210;-80
2021/08/27 02:29:15;;;;;;;4.43;3.88;;;14.10;97.40;;;;;;5034973;28;20225;-80
2021/08/27 02:31:45;;;;;;;5.35;4.25;;;14.10;98.30;;;;;;5024209;28;20241;-82
2021/08/27 02:34:14;;;;;;;4.22;3.90;;;14.10;98.80;;;;;;5040892;28;20256;-81
2021/08/27 02:36:43;;;;;;;5.47;3.63;;;14.00;99.60;;;;;;5040440;28;20232;-82
2021/08/27 02:39:12;;;;;;;4.68;3.78;;;14.00;99.90;;;;;;5035870;28;20206;-82
2021/08/27 02:41:39;;;;;;;4.30;3.90;;;14.00;99.90;;;;;;5018190;28;20246;-83
2021/08/27 02:44:07;;;;;;;4.38;3.65;;;14.10;99.90;;;;;;5020093;28;20226;-82
2021/08/27 02:46:35;;;;;;;7.50;3.70;;;14.10;99.90;;;;;;5039584;28;20579;-82
2021/08/27 02:49:02;;;;;;;5.55;3.55;;;14.20;99.90;;;;;;5051865;28;20219;-82
2021/08/27 02:51:34;;;;;;;3.95;3.25;;;14.20;99.90;;;;;;5040936;28;20568;-81
2021/08/27 02:54:03;;;;;;;4.75;3.30;;;14.20;99.90;;;;;;5045082;28;20268;-82
2021/08/27 02:56:35;;;;;;;3.47;3.17;;;14.20;99.90;;;;;;5039371;28;20230;-81
2021/08/27 02:59:10;;;;;;;4.15;2.80;;;14.20;99.90;;;;;;5036323;28;20233;-82
2021/08/27 03:01:48;;;;;;;3.60;3.30;;;14.20;99.90;;;;;;4999607;28;20303;-81
2021/08/27 03:04:25;;;;;;;6.10;3.60;;;14.20;99.90;;;;;;4998399;28;20246;-81
2021/08/27 03:06:59;;;;;;;4.55;3.25;;;14.10;99.90;;;;;;5036734;28;20213;-81
2021/08/27 03:09:59;;;;;;;4.88;2.95;;;14.10;99.90;;;;;;5041694;28;20244;-81
2021/08/27 03:12:33;;;;;;;3.50;3.20;;;14.10;99.90;;;;;;5047754;28;20187;-80
2021/08/27 03:15:01;;;;;;;3.60;3.30;;;14.10;99.90;;;;;;5053094;28;20261;-80
2021/08/27 03:17:36;;;;;;;4.88;3.40;;;14.10;99.90;;;;;;5053281;28;20234;-81
2021/08/27 03:20:10;;;;;;;4.10;3.30;;;14.10;99.90;;;;;;5052747;28;20206;-80
2021/08/27 03:22:42;;;;;;;5.68;3.70;;;14.10;99.90;;;;;;5054154;28;20221;-80
2021/08/27 03:25:11;;;;;;;4.32;2.95;;;14.20;99.90;;;;;;5056289;28;20227;-80
2021/08/27 03:27:44;;;;;;;4.88;3.50;;;14.10;99.90;;;;;;5057522;28;20242;-80
2021/08/27 03:30:16;;;;;;;5.25;3.10;;;14.10;99.90;;;;;;5054666;28;20710;-81
2021/08/27 03:32:47;;;;;;;4.20;3.47;;;14.10;99.90;;;;;;5059844;28;20218;-81
2021/08/27 03:35:16;;;;;;;4.05;3.65;;;14.10;99.90;;;;;;5059025;28;20257;-80
2021/08/27 03:37:43;;;;;;;3.10;2.80;;;14.00;99.90;;;;;;5057960;28;20333;-80
2021/08/27 03:40:13;;;;;;;5.55;3.25;;;14.00;99.90;;;;;;5055040;28;20198;-80
2021/08/27 03:42:42;;;;;;;3.60;3.10;;;14.00;99.90;;;;;;5060790;28;20203;-81
2021/08/27 03:45:10;;;;;;;4.82;3.08;;;14.00;99.90;;;;;;5042930;28;20223;-81
2021/08/27 03:47:40;;;;;;;4.10;3.00;;;14.00;99.90;;;;;;5040983;28;20188;-81
2021/08/27 03:50:10;;;;;;;4.53;3.60;;;14.00;99.90;;;;;;5055373;28;20190;-81
2021/08/27 03:52:40;;;;;;;4.00;3.22;;;14.00;99.90;;;;;;5060231;28;20194;-81
2021/08/27 03:55:09;;;;;;;5.20;2.97;;;14.00;99.90;;;;;;5057851;28;20196;-80
2021/08/27 03:57:38;;;;;;;3.75;2.85;;;14.00;99.90;;;;;;5058536;28;20230;-81
2021/08/27 04:00:08;;;;;;;3.05;2.75;;;14.00;99.90;;;;;;5043973;28;20203;-81
2021/08/27 04:02:35;;;;;;;3.50;3.20;;;14.00;99.90;;;;;;5039741;28;20232;-81
2021/08/27 04:05:14;;;;;;;5.03;3.08;;;14.00;99.90;;;;;;5038665;28;20215;-80
2021/08/27 04:07:42;;;;;;;4.20;3.35;;;14.10;99.90;;;;;;5016988;28;20578;-79
2021/08/27 04:10:11;;;;;;;3.33;2.88;;;14.10;99.90;;;;;;5018072;28;20297;-79
2021/08/27 04:12:39;;;;;;;3.70;2.95;;;14.10;99.90;;;;;;5021475;28;20647;-79
2021/08/27 04:15:08;;;;;;;6.20;3.65;;;14.10;99.90;;;;;;5028714;28;20271;-80
2021/08/27 04:17:35;;;;;;;4.03;2.85;;;14.10;99.90;;;;;;5035060;28;20270;-81
2021/08/27 04:20:02;;;;;;;3.60;2.70;;;14.10;99.90;;;;;;5053378;28;20267;-80
2021/08/27 04:22:30;;;;;;;3.25;2.95;;;14.00;99.90;;;;;;5056337;28;20613;-79
2021/08/27 04:24:57;;;;;;;5.93;3.15;;;14.00;99.90;;;;;;5058712;28;20218;-80
2021/08/27 04:27:24;;;;;;;5.82;3.72;;;14.00;99.90;;;;;;5044562;28;20192;-79
2021/08/27 04:29:51;;;;;;;3.95;2.90;;;14.00;99.90;;;;;;5038905;28;20207;-79
2021/08/27 04:32:19;;;;;;;5.47;3.13;;;14.00;99.90;;;;;;5039489;28;20263;-80
2021/08/27 04:34:46;;;;;;;5.78;3.60;;;14.00;99.90;;;;;;5036568;28;20602;-80
2021/08/27 04:37:13;;;;;;;5.85;3.50;;;14.10;99.90;;;;;;5044740;28;20249;-80
2021/08/27 04:39:41;;;;;;;7.20;3.80;;;14.10;99.90;;;;;;5053612;28;20235;-80
2021/08/27 04:42:08;;;;;;;4.35;3.30;;;14.00;99.50;;;;;;5043796;28;20203;-81
2021/08/27 04:44:35;;;;;;;4.40;3.28;;;14.10;99.00;;;;;;5036976;28;20238;-81
2021/08/27 04:47:02;;;;;;;4.75;4.35;;;14.10;98.20;;;;;;5042840;28;20207;-80
2021/08/27 04:49:29;;;;;;;5.72;4.47;;;14.10;97.50;;;;;;5045597;28;20622;-80
2021/08/27 04:51:55;;;;;;;4.53;3.15;;;14.10;96.80;;;;;;5043588;28;20234;-80
2021/08/27 04:54:22;;;;;;;4.30;3.90;;;14.10;96.80;;;;;;5051657;28;20223;-80
2021/08/27 04:56:51;;;;;;;6.80;3.58;;;14.10;96.80;;;;;;5039721;28;20253;-80
2021/08/27 04:59:17;;;;;;;5.05;3.50;;;14.10;97.30;;;;;;5041090;28;20221;-80
2021/08/27 05:01:44;;;;;;;5.95;3.70;;;14.10;97.20;;;;;;5049363;28;20213;-80
2021/08/27 05:04:11;;;;;;;4.35;3.00;;;14.10;97.20;;;;;;5042250;28;20250;-79
2021/08/27 05:06:38;;;;;;;5.13;3.03;;;14.20;97.10;;;;;;5035835;28;20203;-80
2021/08/27 05:09:05;;;;;;;6.05;3.50;;;14.20;97.70;;;;;;5018089;28;20307;-80
2021/08/27 05:11:32;;;;;;;4.30;3.63;;;14.20;96.90;;;;;;5019389;28;20227;-80
2021/08/27 05:14:00;;;;;;;7.40;3.60;;;14.20;96.60;;;;;;5019393;28;20252;-80
2021/08/27 05:16:27;;;;;;;4.30;3.55;;;14.20;96.90;;;;;;5020795;28;20633;-81
2021/08/27 05:18:54;;;;;;;5.43;3.30;;;14.20;95.40;;;;;;5057505;28;20215;-80
2021/08/27 05:21:21;;;;;;;4.47;3.33;;;14.30;93.10;;;;;;5056366;28;20225;-80
2021/08/27 05:23:48;;;;;;;9.82;3.35;;;14.30;92.80;;;;;;5038233;28;20238;-81
2021/08/27 05:26:15;;;;;;;9.65;3.75;;;14.30;93.30;;;;;;5037952;28;20215;-81
2021/08/27 05:28:42;;;;;;;7.38;4.07;;;14.40;93.10;;;;;;5021159;28;20211;-81
2021/08/27 05:31:10;;;;;;;4.50;3.47;;;14.30;93.00;;;;;;5019158;28;20215;-80
2021/08/27 05:33:38;;;;;;;5.68;3.90;;;14.40;93.10;;;;;;5039114;28;20206;-80
2021/08/27 05:36:05;;;;;;;6.95;4.30;;;14.40;93.10;;;;;;5048905;28;20759;-79
2021/08/27 05:38:32;;;;;;;4.90;3.38;;;14.50;93.80;;;;;;5026909;28;20232;-79
2021/08/27 05:40:59;;;;;;;7.50;3.90;;;14.60;93.20;;;;;;5022152;28;20235;-79
2021/08/27 05:43:26;;;;;;;5.75;4.00;;;14.50;92.50;;;;;;5039390;28;20289;-79
2021/08/27 05:45:53;;;;;;;4.85;4.03;;;14.60;92.30;;;;;;5039536;28;20227;-79
2021/08/27 05:48:22;;;;;;;6.45;5.10;;;14.60;92.70;;;;;;5041526;28;20265;-79
2021/08/27 05:50:49;;;;;;;4.57;4.03;;;14.70;92.00;;;;;;5044577;28;20207;-79
2021/08/27 05:53:16;;;;;;;5.22;3.92;;;14.80;91.20;;;;;;5044309;28;20206;-82
2021/08/27 05:55:43;;;;;;;5.82;4.25;;;14.70;90.70;;;;;;5039013;28;20305;-81
2021/08/27 05:58:10;;;;;;;9.20;4.70;;;14.70;91.30;;;;;;5027554;28;20262;-83
2021/08/27 06:00:37;;;;;;;8.27;4.75;;;14.70;90.70;;;;;;5033093;28;20198;-82
2021/08/27 06:03:04;;;;;;;5.75;4.43;;;14.70;90.80;;;;;;5038751;28;20233;-82
2021/08/27 06:05:32;;;;;;;6.43;4.53;;;14.60;90.80;;;;;;5030082;28;20228;-78
2021/08/27 06:07:59;;;;;;;6.72;4.70;;;14.60;91.30;;;;;;5016286;28;20295;-79
2021/08/27 06:10:26;;;;;;;7.32;4.55;;;14.60;91.80;;;;;;5018942;28;20235;-82
2021/08/27 06:12:53;;;;;;;5.60;4.43;;;14.70;91.60;;;;;;5018630;28;20327;-81
2021/08/27 06:15:20;;;;;;;8.30;4.30;;;14.70;91.60;;;;;;5017814;28;20308;-81
2021/08/27 06:17:47;;;;;;;5.97;4.30;;;15.00;91.40;;;;;;5015196;28;20318;-79
2021/08/27 06:20:14;;;;;;;3.92;3.63;;;15.30;88.60;;;;;;5017411;28;20210;-80
2021/08/27 06:22:43;;;;;;;5.93;4.70;;;15.40;81.30;;;;;;5016905;28;20211;-80
2021/08/27 06:25:10;;;;;;;6.13;4.63;;;15.50;79.80;;;;;;5019114;28;20307;-80
2021/08/27 06:27:37;;;;;;;8.15;4.85;;;15.50;81.30;;;;;;5023667;28;20204;-82
2021/08/27 06:30:06;;;;;;;4.30;4.00;;;15.50;79.20;;;;;;5028383;28;20216;-80
2021/08/27 06:32:33;;;;;;;6.57;4.88;;;15.50;78.60;;;;;;5024147;28;20231;-80
2021/08/27 06:35:00;;;;;;;7.85;5.60;;;15.50;79.50;;;;;;5024950;28;20228;-81
2021/08/27 06:40:10;;;;;;;7.97;4.95;;;15.10;80.90;;;;;;5039738;28;20234;-81
2021/08/27 06:42:37;;;;;;;4.47;4.10;;;14.90;80.70;;;;;;5041767;28;20305;-81
2021/08/27 06:45:07;;;;;;;5.15;4.57;;;15.00;80.80;;;;;;5040420;28;20354;-81
2021/08/27 06:47:34;;;;;;;5.47;4.75;;;15.00;80.80;;;;;;5041569;28;20210;-81
2021/08/27 06:50:02;;;;;;;7.32;4.55;;;15.10;78.90;;;;;;5041112;28;20233;-80
2021/08/27 06:52:28;;;;;;;7.07;4.35;;;15.20;79.30;;;;;;5026822;28;20206;-81
2021/08/27 06:54:55;;;;;;;8.63;4.88;;;15.30;80.50;;;;;;5022453;28;20259;-81
2021/08/27 06:57:24;;;;;;;5.40;4.40;;;15.40;78.50;;;;;;5043501;28;20211;-82
2021/08/27 06:59:51;;;;;;;8.00;3.53;;;15.40;76.40;;;;;;5049409;28;20438;-82
2021/08/27 07:02:18;;;;;;;12.27;4.85;;;15.60;75.40;;;;;;5028170;28;20226;-82
2021/08/27 07:04:44;;;;;;;3.80;3.50;;;15.60;72.70;;;;;;5052004;28;20203;-82
2021/08/27 07:07:11;;;;;;;5.45;3.80;;;15.50;72.60;;;;;;5061960;28;20230;-81
2021/08/27 07:09:39;;;;;;;6.55;4.20;;;15.50;72.60;;;;;;5048165;28;20217;-81
2021/08/27 07:12:09;;;;;;;7.43;3.85;;;15.50;72.60;;;;;;5061513;28;20187;-80
2021/08/27 07:14:37;;;;;;;4.33;3.57;;;15.60;72.70;;;;;;5061697;28;20227;-82
2021/08/27 07:17:04;;;;;;;4.20;3.85;;;15.80;72.90;;;;;;5048954;28;20532;-82
2021/08/27 07:19:31;;;;;;;4.57;4.17;;;15.80;72.90;;;;;;5035806;28;20311;-82
2021/08/27 07:21:58;;;;;;;6.40;4.30;;;16.00;73.00;;;;;;5022780;28;20470;-82
2021/08/27 07:24:25;;;;;;;6.37;3.50;;;16.00;72.20;;;;;;5030429;28;20513;-82
2021/08/27 07:26:52;;;;;;;4.53;3.50;;;16.10;68.30;;;;;;5043394;28;20872;-81
2021/08/27 07:29:19;;;;;;;4.95;3.55;;;15.90;66.90;;;;;;5052095;28;20447;-82
2021/08/27 07:31:48;;;;;;;3.70;3.13;;;15.80;69.30;;;;;;5030910;28;20218;-81
2021/08/27 07:34:15;;;;;;;5.60;3.17;;;15.90;69.80;;;;;;5031927;28;21016;-82
2021/08/27 07:36:42;;;;;;;6.93;4.13;;;15.90;67.10;;;;;;5044220;28;20444;-82
2021/08/27 07:39:09;;;;;;;5.80;3.40;;;15.80;66.50;;;;;;5043888;28;20525;-82
2021/08/27 07:41:36;;;;;;;5.00;3.80;;;15.80;68.20;;;;;;5025122;28;21219;-82
2021/08/27 07:44:03;;;;;;;3.77;3.00;;;15.80;67.90;;;;;;5031575;28;20699;-82
2021/08/27 07:46:30;;;;;;;5.47;3.63;;;15.90;64.90;;;;;;5038959;28;20473;-82
2021/08/27 07:48:58;;;;;;;6.07;3.40;;;16.00;64.10;;;;;;5041715;28;20230;-83
2021/08/27 07:51:25;;;;;;;4.83;3.77;;;15.90;64.70;;;;;;5042834;28;20509;-85
2021/08/27 07:53:52;;;;;;;5.60;3.93;;;16.10;64.80;;;;;;5039967;28;20561;-85
2021/08/27 07:56:19;;;;;;;4.37;3.23;;;15.90;64.00;;;;;;5026795;28;20464;-86
2021/08/27 07:58:46;;;;;;;5.20;3.60;;;16.00;66.20;;;;;;5019248;28;20559;-83
2021/08/27 08:01:13;;;;;;;3.50;3.10;;;16.50;64.60;;;;;;5039246;28;20432;-81
2021/08/27 08:03:40;;;;;;;2.80;2.60;;;16.80;59.30;;;;;;5057895;28;20450;-79
2021/08/27 08:06:08;;;;;;;3.00;2.10;;;16.70;58.00;;;;;;5051528;28;20433;-82
2021/08/27 08:08:35;;;;;;;4.70;2.57;;;16.50;58.70;;;;;;5040452;28;20498;-83
2021/08/27 08:11:02;;;;;;;4.13;3.10;;;16.10;60.30;;;;;;5060529;28;20462;-81
2021/08/27 08:13:29;;;;;;;4.32;2.80;;;16.10;59.70;;;;;;5043060;28;20444;-82
2021/08/27 08:15:56;;;;;;;3.33;2.45;;;16.10;61.50;;;;;;5038605;28;20258;-83
2021/08/27 08:18:23;;;;;;;5.47;3.80;;;16.20;60.70;;;;;;5034253;28;20220;-83
2021/08/27 08:20:50;;;;;;;8.85;2.58;;;16.50;58.20;;;;;;5039352;28;20496;-84
2021/08/27 08:23:18;;;;;;;5.30;2.83;;;16.50;58.90;;;;;;5033861;28;20239;-82
2021/08/27 08:25:45;;;;;;;10.83;3.03;;;16.70;56.70;;;;;;5040078;28;20469;-81
2021/08/27 08:28:13;;;;;;;5.70;2.90;;;16.90;56.10;;;;;;5045057;28;20456;-85
2021/08/27 08:30:41;;;;;;;3.83;2.63;;;17.40;55.70;;;;;;5030232;28;20462;-81
2021/08/27 08:33:08;;;;;;;3.13;2.83;;;17.50;55.10;;;;;;5023915;28;20484;-82
2021/08/27 08:35:44;;;;;;;2.93;1.83;;;17.70;53.50;;;;;;5040198;28;20497;-87
2021/08/27 08:38:11;;;;;;;3.87;2.90;;;17.60;50.30;;;;;;5035628;28;20468;-81
2021/08/27 08:40:41;;;;;;;9.33;2.97;;;17.30;52.80;;;;;;5023204;28;20459;-81
2021/08/27 08:43:08;;;;;;;2.67;1.93;;;17.10;54.60;;;;;;5029826;28;20527;-83
2021/08/27 08:45:36;;;;;;;6.57;2.20;;;16.90;54.20;;;;;;5036353;28;20472;-86
2021/08/27 08:48:06;;;;;;;2.40;1.97;;;17.00;51.30;;;;;;5047421;28;20443;-85
2021/08/27 08:50:33;;;;;;;5.10;2.33;;;17.20;52.50;;;;;;5040849;28;20456;-86
2021/08/27 08:53:02;;;;;;;3.43;2.00;;;17.70;52.30;;;;;;5039566;28;20448;-86
2021/08/27 08:55:30;;;;;;;11.77;2.60;;;18.30;49.60;;;;;;5047277;28;20473;-82
2021/08/27 08:57:58;;;;;;;6.90;2.30;;;18.70;47.60;;;;;;5025218;28;20465;-81
2021/08/27 09:00:25;;;;;;;3.63;1.83;;;18.80;47.70;;;;;;5039785;28;20523;-82
2021/08/27 09:02:52;;;;;;;1.90;1.80;;;18.90;44.90;;;;;;5040557;28;20476;-81
2021/08/27 09:05:19;;;;;;;3.33;2.40;;;19.00;43.00;;;;;;5031723;28;20501;-83
2021/08/27 09:07:47;;;;;;;4.93;2.20;;;19.10;42.80;;;;;;5029574;28;20454;-80
2021/08/27 09:10:18;;;;;;;2.67;2.13;;;18.70;44.90;;;;;;5028257;28;20967;-81
2021/08/27 09:12:46;;;;;;;4.07;2.27;;;18.20;45.90;;;;;;5022668;28;20461;-81
2021/08/27 09:15:16;;;;;;;2.40;1.90;;;17.90;47.70;;;;;;5024300;28;20481;-81
2021/08/27 09:17:45;;;;;;;4.73;2.33;;;17.40;49.70;;;;;;5023553;28;20802;-82
2021/08/27 09:20:14;;;;;;;4.70;1.80;;;17.70;49.40;;;;;;5028378;28;20586;-81
2021/08/27 09:22:50;;;;;;;2.57;2.00;;;17.90;48.60;;;;;;5021776;28;20446;-82
2021/08/27 09:25:18;;;;;;;3.80;1.70;;;18.30;46.80;;;;;;5021015;28;20578;-81
2021/08/27 09:28:06;;;;;;;3.17;1.93;;;18.70;46.00;;;;;;5020518;28;20463;-81
2021/08/27 09:30:38;;;;;;;3.50;1.87;;;19.30;44.40;;;;;;5021645;28;20490;-82
2021/08/27 09:33:10;;;;;;;4.97;1.90;;;19.40;44.10;;;;;;5020197;28;20461;-80
2021/08/27 09:35:37;;;;;;;3.33;1.70;;;18.10;43.90;;;;;;5022126;28;20499;-81
2021/08/27 09:38:13;;;;;;;8.13;2.07;;;17.80;46.80;;;;;;5019851;28;20462;-79
2021/08/27 09:40:40;;;;;;;2.70;1.77;;;17.70;46.70;;;;;;5028842;28;20445;-80
2021/08/27 09:43:07;;;;;;;5.33;2.40;;;17.30;49.30;;;;;;5039195;28;20429;-81
2021/08/27 09:45:39;;;;;;;5.33;2.70;;;17.10;50.00;;;;;;5039231;28;20513;-82
2021/08/27 09:48:09;;;;;;;3.67;2.23;;;17.10;50.10;;;;;;5005578;28;20442;-80
2021/08/27 09:50:38;;;;;;;4.40;2.07;;;17.10;50.60;;;;;;5001524;28;20487;-81
2021/08/27 09:53:06;;;;;;;3.37;2.07;;;17.00;50.40;;;;;;5023056;28;20464;-80
2021/08/27 09:55:36;;;;;;;5.23;2.13;;;16.90;52.00;;;;;;5026292;28;20472;-82
2021/08/27 09:58:05;;;;;;;2.67;2.43;;;16.80;52.70;;;;;;5040230;28;20460;-80
2021/08/27 10:00:36;;;;;;;2.40;2.20;;;16.80;53.80;;;;;;5042665;28;20458;-80
2021/08/27 10:03:18;;;;;;;3.07;2.30;;;16.70;54.70;;;;;;5026109;28;20487;-80
2021/08/27 10:05:48;;;;;;;3.60;2.40;;;16.80;54.70;;;;;;5021287;28;20506;-79
2021/08/27 10:08:17;;;;;;;9.67;2.50;;;16.90;54.80;;;;;;5041741;28;20458;-81
2021/08/27 10:10:46;;;;;;;6.40;2.90;;;17.10;53.90;;;;;;5042568;28;20482;-80
2021/08/27 10:13:13;;;;;;;7.10;2.93;;;17.20;53.80;;;;;;5041689;28;20461;-82
2021/08/27 10:15:42;;;;;;;3.80;2.00;;;17.40;54.10;;;;;;5046758;22;20499;-82
2021/08/27 10:18:11;;;;;;;2.67;2.13;;;17.70;51.60;;;;;;5033997;28;20451;-79
2021/08/27 10:20:39;;;;;;;3.43;2.60;;;17.80;50.60;;;;;;5036228;28;20488;-80
2021/08/27 10:23:08;;;;;;;2.37;1.83;;;18.00;50.80;;;;;;5036776;28;20458;-84
2021/08/27 10:25:35;;;;;;;5.10;2.40;;;18.20;50.00;;;;;;5048022;28;20466;-82
2021/08/27 10:28:03;;;;;;;3.17;2.40;;;18.90;47.80;;;;;;5034332;28;20455;-82
2021/08/27 10:30:55;;;;;;;2.40;2.20;;;19.00;46.20;;;;;;5024574;28;20489;-82
2021/08/27 10:34:04;;;;;;;3.10;2.23;;;19.10;45.20;;;;;;5041704;28;20517;-82
2021/08/27 10:36:55;;;;;;;3.90;2.17;;;19.40;43.10;;;;;;5038596;28;20454;-81
2021/08/27 10:39:45;;;;;;;3.87;2.20;;;19.50;42.80;;;;;;5022897;28;20517;-82
2021/08/27 10:42:45;;;;;;;3.03;1.90;;;19.60;42.60;;;;;;5023427;28;20454;-82
2021/08/27 10:45:12;;;;;;;2.90;1.90;;;18.90;43.30;;;;;;5031097;28;20483;-82
2021/08/27 10:48:09;;;;;;;5.20;2.90;;;18.50;44.40;;;;;;5042537;28;20480;-83
2021/08/27 10:50:37;;;;;;;3.90;1.87;;;18.40;46.10;;;;;;5043430;28;20446;-82
2021/08/27 10:53:23;;;;;;;2.13;1.77;;;18.00;47.00;;;;;;5043584;28;20434;-81
2021/08/27 10:55:51;;;;;;;3.70;2.30;;;17.80;46.80;;;;;;5047970;28;20471;-84
2021/08/27 10:58:21;;;;;;;3.50;2.50;;;17.80;46.80;;;;;;5033643;28;20466;-85
2021/08/27 11:00:52;;;;;;;6.10;3.30;;;17.70;47.40;;;;;;5019361;28;20491;-85
2021/08/27 11:03:21;;;;;;;4.23;2.77;;;17.50;49.30;;;;;;5024349;28;20489;-84
2021/08/27 11:05:49;;;;;;;2.37;2.13;;;17.50;51.20;;;;;;5033357;28;20457;-83
2021/08/27 11:08:17;;;;;;;2.80;2.53;;;17.50;52.10;;;;;;5031830;28;20473;-82
2021/08/27 11:11:05;;;;;;;3.67;2.43;;;17.60;53.70;;;;;;5029862;28;20460;-83
2021/08/27 11:13:37;;;;;;;2.60;2.40;;;17.60;53.30;;;;;;5029944;28;20484;-82
2021/08/27 11:16:27;;;;;;;5.83;2.40;;;17.70;51.70;;;;;;5030650;28;20470;-82
2021/08/27 11:18:54;;;;;;;5.00;2.57;;;17.80;52.90;;;;;;5036652;28;20539;-83
2021/08/27 11:21:35;;;;;;;31.47;7.00;;;17.30;54.50;;;;;;5036773;28;20448;-83
2021/08/27 11:24:16;;;;;;;14.20;3.60;;;17.20;54.40;;;;;;5049909;28;20426;-83
2021/08/27 11:26:47;;;;;;;13.30;3.77;;;17.20;55.60;;;;;;5042294;28;20497;-83
2021/08/27 11:29:33;;;;;;;18.90;4.23;;;17.30;53.50;;;;;;5032132;28;20484;-84
2021/08/27 11:32:12;;;;;;;20.77;4.27;;;17.20;52.50;;;;;;5027831;28;20455;-86
2021/08/27 11:34:53;;;;;;;9.80;3.03;;;17.30;51.70;;;;;;5032611;28;20464;-84
2021/08/27 11:37:21;;;;;;;10.67;2.90;;;17.50;51.80;;;;;;5015800;28;20501;-82
2021/08/27 11:39:48;;;;;;;3.53;1.93;;;18.10;51.00;;;;;;5014909;28;20529;-83
2021/08/27 11:42:16;;;;;;;32.50;5.30;;;18.40;49.50;;;;;;5016439;28;20501;-82
2021/08/27 11:44:53;;;;;;;6.20;2.60;;;18.60;48.40;;;;;;5023672;28;20510;-81
2021/08/27 11:47:21;;;;;;;2.73;2.13;;;19.00;47.90;;;;;;5029855;28;20460;-82
2021/08/27 11:49:57;;;;;;;4.70;2.33;;;19.30;46.60;;;;;;5033827;28;20435;-82
2021/08/27 11:52:28;;;;;;;2.97;2.60;;;19.40;45.10;;;;;;5037108;28;20517;-84
2021/08/27 11:55:03;;;;;;;6.07;2.10;;;19.10;45.60;;;;;;5040569;28;20558;-83
2021/08/27 11:57:30;;;;;;;5.90;2.40;;;19.50;43.80;;;;;;5040555;28;20469;-82
2021/08/27 12:00:08;;;;;;;99.83;12.67;;;19.60;44.20;;;;;;5040002;28;20480;-81
2021/08/27 12:02:35;;;;;;;4.17;2.10;;;20.10;43.10;;;;;;5032978;28;20433;-81
2021/08/27 12:05:03;;;;;;;3.13;2.27;;;20.40;42.50;;;;;;5020212;28;20573;-81
2021/08/27 12:07:31;;;;;;;67.20;11.47;;;20.60;43.00;;;;;;5020147;28;20505;-81
2021/08/27 12:10:09;;;;;;;4.90;2.60;;;20.40;42.30;;;;;;5018617;28;20502;-80
2021/08/27 12:12:38;;;;;;;6.33;2.50;;;20.00;43.60;;;;;;5021162;28;20914;-82
2021/08/27 12:15:09;;;;;;;4.20;2.37;;;20.10;41.10;;;;;;5019437;28;20490;-82
2021/08/27 12:17:36;;;;;;;4.03;2.77;;;20.10;40.90;;;;;;5019261;28;20831;-81
2021/08/27 12:20:07;;;;;;;4.93;2.53;;;20.20;41.10;;;;;;5020314;28;20562;-82
2021/08/27 12:22:43;;;;;;;6.03;2.50;;;20.30;41.60;;;;;;5021493;28;20467;-81
2021/08/27 12:25:18;;;;;;;3.07;2.60;;;20.30;41.60;;;;;;5032100;28;20480;-83
2021/08/27 12:27:50;;;;;;;3.97;2.93;;;20.20;41.60;;;;;;5034379;28;20474;-82
2021/08/27 12:30:19;;;;;;;7.03;2.70;;;20.20;41.30;;;;;;5023736;28;20450;-81
2021/08/27 12:32:47;;;;;;;3.60;2.83;;;20.00;42.50;;;;;;5025429;28;20517;-83
2021/08/27 12:35:17;;;;;;;14.73;4.60;;;20.40;40.60;;;;;;5025002;28;20803;-83
2021/08/27 12:37:44;;;;;;;3.93;2.90;;;20.50;40.00;;;;;;5023216;28;20463;-83
2021/08/27 12:40:13;;;;;;;3.67;2.63;;;20.70;39.50;;;;;;5021880;28;20601;-82
2021/08/27 12:42:40;;;;;;;2.93;2.63;;;20.80;39.50;;;;;;5022444;28;20451;-84
2021/08/27 12:45:10;;;;;;;3.43;3.10;;;20.90;37.20;;;;;;5021197;28;20492;-81
2021/08/27 12:47:41;;;;;;;4.00;3.03;;;20.70;38.00;;;;;;5020832;28;21071;-84
2021/08/27 12:50:11;;;;;;;5.77;3.70;;;20.70;37.80;;;;;;5019089;28;20458;-82
2021/08/27 12:52:39;;;;;;;4.47;3.00;;;20.80;37.50;;;;;;5017206;28;20474;-82
2021/08/27 12:55:20;;;;;;;3.07;2.63;;;20.60;36.90;;;;;;5036093;28;20522;-84
2021/08/27 12:57:49;;;;;;;2.87;2.60;;;20.50;36.00;;;;;;5038061;28;20454;-84
2021/08/27 13:00:24;;;;;;;2.97;2.70;;;20.60;37.20;;;;;;5025032;28;20449;-82
2021/08/27 13:02:53;;;;;;;5.63;2.47;;;20.70;37.30;;;;;;5022520;28;20533;-85